sensor_id;sensor_type;location;lat;lon;timestamp;P1;durP1;ratioP1;P2;durP2;ratioP2
31724;SDS011;18306;40.960;14.836;2023-03-23T00:01:17;24.33;;;12.57;;
31724;SDS011;18306;40.960;14.836;2023-03-23T00:03:47;23.23;;;12.38;;
31724;SDS011;18306;40.960;14.836;2023-03-23T00:06:16;19.15;;;11.77;;
31724;SDS011;18306;40.960;14.836;2023-03-23T00:08:45;24.55;;;11.65;;
31724;SDS011;18306;40.960;14.836;2023-03-23T00:11:19;26.60;;;11.38;;
31724;SDS011;18306;40.960;14.836;2023-03-23T00:13:48;23.80;;;11.82;;
31724;SDS011;18306;40.960;14.836;2023-03-23T00:16:20;20.05;;;10.43;;
31724;SDS011;18306;40.960;14.836;2023-03-23T00:18:55;18.92;;;11.65;;
31724;SDS011;18306;40.960;14.836;2023-03-23T00:21:29;17.63;;;11.45;;
31724;SDS011;18306;40.960;14.836;2023-03-23T00:24:03;22.05;;;12.75;;
31724;SDS011;18306;40.960;14.836;2023-03-23T00:26:33;31.08;;;11.60;;
31724;SDS011;18306;40.960;14.836;2023-03-23T00:29:04;23.15;;;11.85;;
31724;SDS011;18306;40.960;14.836;2023-03-23T00:31:31;19.42;;;12.35;;
31724;SDS011;18306;40.960;14.836;2023-03-23T00:33:59;23.35;;;11.68;;
31724;SDS011;18306;40.960;14.836;2023-03-23T00:36:27;24.25;;;11.77;;
31724;SDS011;18306;40.960;14.836;2023-03-23T00:38:54;22.42;;;12.07;;
31724;SDS011;18306;40.960;14.836;2023-03-23T00:41:26;21.40;;;10.95;;
31724;SDS011;18306;40.960;14.836;2023-03-23T00:43:55;23.08;;;13.38;;
31724;SDS011;18306;40.960;14.836;2023-03-23T00:46:23;21.25;;;12.43;;
31724;SDS011;18306;40.960;14.836;2023-03-23T00:48:50;19.23;;;11.27;;
31724;SDS011;18306;40.960;14.836;2023-03-23T00:51:18;23.08;;;12.35;;
31724;SDS011;18306;40.960;14.836;2023-03-23T00:53:45;29.02;;;12.57;;
31724;SDS011;18306;40.960;14.836;2023-03-23T00:56:13;27.88;;;12.52;;
31724;SDS011;18306;40.960;14.836;2023-03-23T00:58:41;23.23;;;11.02;;
31724;SDS011;18306;40.960;14.836;2023-03-23T01:01:09;17.20;;;10.73;;
31724;SDS011;18306;40.960;14.836;2023-03-23T01:03:36;25.13;;;12.02;;
31724;SDS011;18306;40.960;14.836;2023-03-23T01:06:07;23.67;;;11.40;;
31724;SDS011;18306;40.960;14.836;2023-03-23T01:08:42;24.63;;;11.80;;
31724;SDS011;18306;40.960;14.836;2023-03-23T01:11:12;24.38;;;13.00;;
31724;SDS011;18306;40.960;14.836;2023-03-23T01:13:42;17.98;;;10.15;;
31724;SDS011;18306;40.960;14.836;2023-03-23T01:16:09;17.15;;;10.02;;
31724;SDS011;18306;40.960;14.836;2023-03-23T01:18:37;24.67;;;11.95;;
31724;SDS011;18306;40.960;14.836;2023-03-23T01:21:09;26.02;;;11.32;;
31724;SDS011;18306;40.960;14.836;2023-03-23T01:23:43;23.38;;;11.48;;
31724;SDS011;18306;40.960;14.836;2023-03-23T01:26:14;27.77;;;11.57;;
31724;SDS011;18306;40.960;14.836;2023-03-23T01:28:43;18.77;;;10.35;;
31724;SDS011;18306;40.960;14.836;2023-03-23T01:31:12;26.23;;;10.65;;
31724;SDS011;18306;40.960;14.836;2023-03-23T01:33:41;19.27;;;10.00;;
31724;SDS011;18306;40.960;14.836;2023-03-23T01:36:13;18.42;;;10.85;;
31724;SDS011;18306;40.960;14.836;2023-03-23T01:38:43;19.38;;;10.32;;
31724;SDS011;18306;40.960;14.836;2023-03-23T01:41:12;19.70;;;11.00;;
31724;SDS011;18306;40.960;14.836;2023-03-23T01:46:53;20.80;;;11.32;;
31724;SDS011;18306;40.960;14.836;2023-03-23T01:49:22;22.15;;;11.82;;
31724;SDS011;18306;40.960;14.836;2023-03-23T01:51:53;22.40;;;12.75;;
31724;SDS011;18306;40.960;14.836;2023-03-23T01:54:24;21.35;;;11.32;;
31724;SDS011;18306;40.960;14.836;2023-03-23T01:56:55;21.80;;;11.27;;
31724;SDS011;18306;40.960;14.836;2023-03-23T01:59:26;21.20;;;10.48;;
31724;SDS011;18306;40.960;14.836;2023-03-23T02:02:22;25.55;;;11.77;;
31724;SDS011;18306;40.960;14.836;2023-03-23T02:04:51;21.83;;;10.98;;
31724;SDS011;18306;40.960;14.836;2023-03-23T02:07:22;29.77;;;12.68;;
31724;SDS011;18306;40.960;14.836;2023-03-23T02:09:51;22.65;;;11.57;;
31724;SDS011;18306;40.960;14.836;2023-03-23T02:12:19;25.27;;;12.68;;
31724;SDS011;18306;40.960;14.836;2023-03-23T02:14:48;22.60;;;12.65;;
31724;SDS011;18306;40.960;14.836;2023-03-23T02:17:23;22.55;;;12.15;;
31724;SDS011;18306;40.960;14.836;2023-03-23T02:20:10;19.25;;;10.93;;
31724;SDS011;18306;40.960;14.836;2023-03-23T02:29:11;25.55;;;12.18;;
31724;SDS011;18306;40.960;14.836;2023-03-23T02:31:29;28.38;;;11.52;;
31724;SDS011;18306;40.960;14.836;2023-03-23T02:34:21;17.65;;;11.50;;
31724;SDS011;18306;40.960;14.836;2023-03-23T02:37:02;24.35;;;10.45;;
31724;SDS011;18306;40.960;14.836;2023-03-23T02:39:45;16.20;;;9.30;;
31724;SDS011;18306;40.960;14.836;2023-03-23T02:42:18;24.75;;;12.18;;
31724;SDS011;18306;40.960;14.836;2023-03-23T02:44:49;20.15;;;11.68;;
31724;SDS011;18306;40.960;14.836;2023-03-23T02:47:20;22.08;;;11.90;;
31724;SDS011;18306;40.960;14.836;2023-03-23T02:49:51;29.58;;;12.63;;
31724;SDS011;18306;40.960;14.836;2023-03-23T02:52:31;21.90;;;11.93;;
31724;SDS011;18306;40.960;14.836;2023-03-23T02:55:02;23.55;;;11.77;;
31724;SDS011;18306;40.960;14.836;2023-03-23T02:57:30;22.23;;;10.65;;
31724;SDS011;18306;40.960;14.836;2023-03-23T03:00:00;22.80;;;12.25;;
31724;SDS011;18306;40.960;14.836;2023-03-23T03:02:31;28.33;;;13.07;;
31724;SDS011;18306;40.960;14.836;2023-03-23T03:05:04;25.40;;;11.90;;
31724;SDS011;18306;40.960;14.836;2023-03-23T03:10:34;24.75;;;11.93;;
31724;SDS011;18306;40.960;14.836;2023-03-23T03:15:44;19.73;;;11.43;;
31724;SDS011;18306;40.960;14.836;2023-03-23T03:18:22;29.02;;;11.80;;
31724;SDS011;18306;40.960;14.836;2023-03-23T03:20:55;26.13;;;13.13;;
31724;SDS011;18306;40.960;14.836;2023-03-23T03:23:27;22.87;;;12.43;;
31724;SDS011;18306;40.960;14.836;2023-03-23T03:25:58;24.77;;;12.30;;
31724;SDS011;18306;40.960;14.836;2023-03-23T03:28:45;18.75;;;10.55;;
31724;SDS011;18306;40.960;14.836;2023-03-23T03:31:17;27.85;;;12.43;;
31724;SDS011;18306;40.960;14.836;2023-03-23T03:33:46;17.75;;;10.43;;
31724;SDS011;18306;40.960;14.836;2023-03-23T03:36:14;24.02;;;12.48;;
31724;SDS011;18306;40.960;14.836;2023-03-23T03:38:48;30.13;;;11.85;;
31724;SDS011;18306;40.960;14.836;2023-03-23T03:41:17;24.17;;;12.00;;
31724;SDS011;18306;40.960;14.836;2023-03-23T03:43:46;17.45;;;10.68;;
31724;SDS011;18306;40.960;14.836;2023-03-23T03:46:13;30.15;;;12.88;;
31724;SDS011;18306;40.960;14.836;2023-03-23T03:48:40;16.75;;;10.15;;
31724;SDS011;18306;40.960;14.836;2023-03-23T03:51:07;21.42;;;11.02;;
31724;SDS011;18306;40.960;14.836;2023-03-23T03:53:38;22.02;;;11.65;;
31724;SDS011;18306;40.960;14.836;2023-03-23T03:56:05;22.63;;;12.93;;
31724;SDS011;18306;40.960;14.836;2023-03-23T03:58:39;24.90;;;13.48;;
31724;SDS011;18306;40.960;14.836;2023-03-23T04:01:20;22.90;;;11.40;;
31724;SDS011;18306;40.960;14.836;2023-03-23T04:03:48;22.67;;;11.52;;
31724;SDS011;18306;40.960;14.836;2023-03-23T04:06:37;19.80;;;11.55;;
31724;SDS011;18306;40.960;14.836;2023-03-23T04:09:05;32.83;;;12.43;;
31724;SDS011;18306;40.960;14.836;2023-03-23T04:11:34;23.15;;;11.52;;
31724;SDS011;18306;40.960;14.836;2023-03-23T04:14:36;20.00;;;10.10;;
31724;SDS011;18306;40.960;14.836;2023-03-23T04:17:03;21.90;;;11.55;;
31724;SDS011;18306;40.960;14.836;2023-03-23T04:19:30;21.75;;;12.50;;
31724;SDS011;18306;40.960;14.836;2023-03-23T04:22:00;17.08;;;11.20;;
31724;SDS011;18306;40.960;14.836;2023-03-23T04:24:30;26.52;;;12.18;;
31724;SDS011;18306;40.960;14.836;2023-03-23T04:27:00;24.77;;;12.45;;
31724;SDS011;18306;40.960;14.836;2023-03-23T04:29:29;21.42;;;11.40;;
31724;SDS011;18306;40.960;14.836;2023-03-23T04:32:15;24.63;;;10.93;;
31724;SDS011;18306;40.960;14.836;2023-03-23T04:34:50;21.65;;;11.85;;
31724;SDS011;18306;40.960;14.836;2023-03-23T04:37:19;22.08;;;10.77;;
31724;SDS011;18306;40.960;14.836;2023-03-23T04:39:47;21.33;;;11.25;;
31724;SDS011;18306;40.960;14.836;2023-03-23T04:42:15;15.55;;;10.00;;
31724;SDS011;18306;40.960;14.836;2023-03-23T04:45:00;18.70;;;9.90;;
31724;SDS011;18306;40.960;14.836;2023-03-23T04:47:36;27.92;;;11.70;;
31724;SDS011;18306;40.960;14.836;2023-03-23T04:50:14;23.98;;;11.52;;
31724;SDS011;18306;40.960;14.836;2023-03-23T04:52:41;22.42;;;12.52;;
31724;SDS011;18306;40.960;14.836;2023-03-23T04:55:13;24.83;;;12.27;;
31724;SDS011;18306;40.960;14.836;2023-03-23T04:57:44;23.75;;;11.35;;
31724;SDS011;18306;40.960;14.836;2023-03-23T05:00:32;19.13;;;10.20;;
31724;SDS011;18306;40.960;14.836;2023-03-23T05:03:02;20.83;;;11.63;;
31724;SDS011;18306;40.960;14.836;2023-03-23T05:05:30;24.23;;;11.43;;
31724;SDS011;18306;40.960;14.836;2023-03-23T05:08:02;23.98;;;11.50;;
31724;SDS011;18306;40.960;14.836;2023-03-23T05:10:34;20.10;;;11.50;;
31724;SDS011;18306;40.960;14.836;2023-03-23T05:13:06;22.98;;;12.50;;
31724;SDS011;18306;40.960;14.836;2023-03-23T05:15:34;29.30;;;12.65;;
31724;SDS011;18306;40.960;14.836;2023-03-23T05:18:03;20.38;;;10.95;;
31724;SDS011;18306;40.960;14.836;2023-03-23T05:20:31;27.90;;;12.15;;
31724;SDS011;18306;40.960;14.836;2023-03-23T05:23:07;30.80;;;13.70;;
31724;SDS011;18306;40.960;14.836;2023-03-23T05:25:36;29.35;;;13.57;;
31724;SDS011;18306;40.960;14.836;2023-03-23T05:28:18;27.55;;;14.32;;
31724;SDS011;18306;40.960;14.836;2023-03-23T05:31:04;30.70;;;17.75;;
31724;SDS011;18306;40.960;14.836;2023-03-23T05:33:33;29.05;;;13.52;;
31724;SDS011;18306;40.960;14.836;2023-03-23T05:36:05;36.90;;;15.75;;
31724;SDS011;18306;40.960;14.836;2023-03-23T05:38:59;35.15;;;16.48;;
31724;SDS011;18306;40.960;14.836;2023-03-23T05:41:40;43.17;;;16.42;;
31724;SDS011;18306;40.960;14.836;2023-03-23T05:44:07;33.15;;;14.73;;
31724;SDS011;18306;40.960;14.836;2023-03-23T05:46:54;42.10;;;15.88;;
31724;SDS011;18306;40.960;14.836;2023-03-23T05:49:21;29.40;;;14.32;;
31724;SDS011;18306;40.960;14.836;2023-03-23T05:51:48;31.40;;;13.50;;
31724;SDS011;18306;40.960;14.836;2023-03-23T05:54:16;39.70;;;15.85;;
31724;SDS011;18306;40.960;14.836;2023-03-23T05:56:46;28.95;;;13.90;;
31724;SDS011;18306;40.960;14.836;2023-03-23T05:59:23;42.00;;;15.23;;
31724;SDS011;18306;40.960;14.836;2023-03-23T06:01:53;43.25;;;16.77;;
31724;SDS011;18306;40.960;14.836;2023-03-23T06:04:21;32.83;;;14.25;;
31724;SDS011;18306;40.960;14.836;2023-03-23T06:07:29;34.13;;;15.70;;
31724;SDS011;18306;40.960;14.836;2023-03-23T06:10:06;42.75;;;16.85;;
31724;SDS011;18306;40.960;14.836;2023-03-23T06:12:39;31.45;;;14.85;;
31724;SDS011;18306;40.960;14.836;2023-03-23T06:15:35;28.10;;;15.85;;
31724;SDS011;18306;40.960;14.836;2023-03-23T06:18:13;35.83;;;15.43;;
31724;SDS011;18306;40.960;14.836;2023-03-23T06:23:28;40.83;;;17.48;;
31724;SDS011;18306;40.960;14.836;2023-03-23T06:26:03;50.78;;;18.00;;
31724;SDS011;18306;40.960;14.836;2023-03-23T06:28:50;31.33;;;17.83;;
31724;SDS011;18306;40.960;14.836;2023-03-23T06:31:31;37.95;;;17.95;;
31724;SDS011;18306;40.960;14.836;2023-03-23T06:34:20;37.45;;;18.77;;
31724;SDS011;18306;40.960;14.836;2023-03-23T06:37:01;36.55;;;17.85;;
31724;SDS011;18306;40.960;14.836;2023-03-23T06:39:54;34.63;;;16.48;;
31724;SDS011;18306;40.960;14.836;2023-03-23T06:42:31;29.42;;;14.23;;
31724;SDS011;18306;40.960;14.836;2023-03-23T06:45:24;32.95;;;15.77;;
31724;SDS011;18306;40.960;14.836;2023-03-23T06:48:08;29.33;;;15.82;;
31724;SDS011;18306;40.960;14.836;2023-03-23T06:50:44;31.63;;;15.75;;
31724;SDS011;18306;40.960;14.836;2023-03-23T06:53:28;29.83;;;15.98;;
31724;SDS011;18306;40.960;14.836;2023-03-23T06:55:58;26.85;;;14.75;;
31724;SDS011;18306;40.960;14.836;2023-03-23T06:58:27;26.70;;;14.52;;
31724;SDS011;18306;40.960;14.836;2023-03-23T07:00:56;26.27;;;16.02;;
31724;SDS011;18306;40.960;14.836;2023-03-23T07:03:35;25.40;;;14.52;;
31724;SDS011;18306;40.960;14.836;2023-03-23T07:06:03;23.92;;;14.85;;
31724;SDS011;18306;40.960;14.836;2023-03-23T07:08:35;30.73;;;13.45;;
31724;SDS011;18306;40.960;14.836;2023-03-23T07:11:04;30.25;;;15.05;;
31724;SDS011;18306;40.960;14.836;2023-03-23T07:13:32;27.52;;;15.48;;
31724;SDS011;18306;40.960;14.836;2023-03-23T07:16:04;34.83;;;15.07;;
31724;SDS011;18306;40.960;14.836;2023-03-23T07:18:32;30.15;;;14.52;;
31724;SDS011;18306;40.960;14.836;2023-03-23T07:21:01;30.25;;;12.63;;
31724;SDS011;18306;40.960;14.836;2023-03-23T07:23:32;30.38;;;15.43;;
31724;SDS011;18306;40.960;14.836;2023-03-23T07:26:03;26.98;;;12.70;;
31724;SDS011;18306;40.960;14.836;2023-03-23T07:28:45;30.92;;;14.50;;
31724;SDS011;18306;40.960;14.836;2023-03-23T07:31:36;28.90;;;12.23;;
31724;SDS011;18306;40.960;14.836;2023-03-23T07:34:06;22.23;;;11.48;;
31724;SDS011;18306;40.960;14.836;2023-03-23T07:39:30;24.15;;;10.50;;
31724;SDS011;18306;40.960;14.836;2023-03-23T07:42:00;15.25;;;8.88;;
31724;SDS011;18306;40.960;14.836;2023-03-23T07:44:41;21.17;;;9.70;;
31724;SDS011;18306;40.960;14.836;2023-03-23T07:47:12;24.92;;;10.23;;
31724;SDS011;18306;40.960;14.836;2023-03-23T07:49:40;18.20;;;10.27;;
31724;SDS011;18306;40.960;14.836;2023-03-23T07:52:20;15.88;;;9.23;;
31724;SDS011;18306;40.960;14.836;2023-03-23T07:54:51;14.50;;;8.63;;
31724;SDS011;18306;40.960;14.836;2023-03-23T07:57:36;16.77;;;10.73;;
31724;SDS011;18306;40.960;14.836;2023-03-23T08:00:09;17.77;;;8.75;;
31724;SDS011;18306;40.960;14.836;2023-03-23T08:02:56;28.42;;;9.85;;
31724;SDS011;18306;40.960;14.836;2023-03-23T08:05:57;16.65;;;8.82;;
31724;SDS011;18306;40.960;14.836;2023-03-23T08:08:52;16.33;;;8.90;;
31724;SDS011;18306;40.960;14.836;2023-03-23T08:11:43;15.18;;;8.65;;
31724;SDS011;18306;40.960;14.836;2023-03-23T08:14:39;12.93;;;8.50;;
31724;SDS011;18306;40.960;14.836;2023-03-23T08:17:26;15.70;;;8.80;;
31724;SDS011;18306;40.960;14.836;2023-03-23T08:20:13;17.23;;;10.13;;
31724;SDS011;18306;40.960;14.836;2023-03-23T08:23:02;19.88;;;10.27;;
31724;SDS011;18306;40.960;14.836;2023-03-23T08:25:36;13.60;;;8.05;;
31724;SDS011;18306;40.960;14.836;2023-03-23T08:28:26;16.90;;;8.43;;
31724;SDS011;18306;40.960;14.836;2023-03-23T08:31:16;17.80;;;7.93;;
31724;SDS011;18306;40.960;14.836;2023-03-23T08:33:52;14.40;;;7.90;;
31724;SDS011;18306;40.960;14.836;2023-03-23T08:36:40;20.25;;;7.43;;
31724;SDS011;18306;40.960;14.836;2023-03-23T08:39:23;15.50;;;7.50;;
31724;SDS011;18306;40.960;14.836;2023-03-23T08:42:09;11.25;;;7.63;;
31724;SDS011;18306;40.960;14.836;2023-03-23T08:44:42;17.48;;;8.38;;
31724;SDS011;18306;40.960;14.836;2023-03-23T08:47:18;11.65;;;7.07;;
31724;SDS011;18306;40.960;14.836;2023-03-23T08:50:12;18.48;;;7.60;;
31724;SDS011;18306;40.960;14.836;2023-03-23T08:52:56;16.70;;;7.97;;
31724;SDS011;18306;40.960;14.836;2023-03-23T08:55:42;11.27;;;6.55;;
31724;SDS011;18306;40.960;14.836;2023-03-23T08:58:28;14.10;;;7.15;;
31724;SDS011;18306;40.960;14.836;2023-03-23T09:01:07;13.13;;;6.40;;
31724;SDS011;18306;40.960;14.836;2023-03-23T09:03:43;8.20;;;4.43;;
31724;SDS011;18306;40.960;14.836;2023-03-23T09:06:34;11.65;;;5.30;;
31724;SDS011;18306;40.960;14.836;2023-03-23T09:09:03;15.63;;;6.47;;
31724;SDS011;18306;40.960;14.836;2023-03-23T09:11:35;7.78;;;4.75;;
31724;SDS011;18306;40.960;14.836;2023-03-23T09:14:04;9.13;;;4.65;;
31724;SDS011;18306;40.960;14.836;2023-03-23T09:16:34;5.85;;;3.75;;
31724;SDS011;18306;40.960;14.836;2023-03-23T09:19:08;7.80;;;4.25;;
31724;SDS011;18306;40.960;14.836;2023-03-23T09:21:45;7.22;;;4.22;;
31724;SDS011;18306;40.960;14.836;2023-03-23T09:24:17;6.28;;;3.83;;
31724;SDS011;18306;40.960;14.836;2023-03-23T09:27:00;6.43;;;4.28;;
31724;SDS011;18306;40.960;14.836;2023-03-23T09:29:42;5.90;;;4.22;;
31724;SDS011;18306;40.960;14.836;2023-03-23T09:32:19;7.38;;;4.13;;
31724;SDS011;18306;40.960;14.836;2023-03-23T09:35:02;6.70;;;4.20;;
31724;SDS011;18306;40.960;14.836;2023-03-23T09:37:41;22.48;;;4.63;;
31724;SDS011;18306;40.960;14.836;2023-03-23T09:40:24;11.13;;;5.32;;
31724;SDS011;18306;40.960;14.836;2023-03-23T09:56:39;6.88;;;5.40;;
31724;SDS011;18306;40.960;14.836;2023-03-23T09:59:12;8.15;;;4.95;;
31724;SDS011;18306;40.960;14.836;2023-03-23T10:01:52;9.73;;;5.72;;
31724;SDS011;18306;40.960;14.836;2023-03-23T10:04:28;10.18;;;5.85;;
31724;SDS011;18306;40.960;14.836;2023-03-23T10:07:08;8.55;;;5.75;;
31724;SDS011;18306;40.960;14.836;2023-03-23T10:09:41;11.90;;;5.35;;
31724;SDS011;18306;40.960;14.836;2023-03-23T10:12:13;8.07;;;5.05;;
31724;SDS011;18306;40.960;14.836;2023-03-23T10:14:46;6.72;;;4.72;;
31724;SDS011;18306;40.960;14.836;2023-03-23T10:17:37;7.82;;;4.20;;
31724;SDS011;18306;40.960;14.836;2023-03-23T10:20:18;8.20;;;4.43;;
31724;SDS011;18306;40.960;14.836;2023-03-23T10:25:28;9.07;;;3.08;;
31724;SDS011;18306;40.960;14.836;2023-03-23T10:30:40;4.00;;;2.75;;
31724;SDS011;18306;40.960;14.836;2023-03-23T10:33:18;5.80;;;3.13;;
31724;SDS011;18306;40.960;14.836;2023-03-23T10:35:53;4.93;;;3.50;;
31724;SDS011;18306;40.960;14.836;2023-03-23T10:38:26;5.47;;;3.20;;
31724;SDS011;18306;40.960;14.836;2023-03-23T10:41:04;5.50;;;3.30;;
31724;SDS011;18306;40.960;14.836;2023-03-23T10:43:38;5.20;;;3.25;;
31724;SDS011;18306;40.960;14.836;2023-03-23T10:46:10;6.68;;;3.92;;
31724;SDS011;18306;40.960;14.836;2023-03-23T10:48:50;4.85;;;3.38;;
31724;SDS011;18306;40.960;14.836;2023-03-23T10:51:20;9.75;;;4.40;;
31724;SDS011;18306;40.960;14.836;2023-03-23T10:53:56;3.75;;;2.80;;
31724;SDS011;18306;40.960;14.836;2023-03-23T10:56:25;6.10;;;3.10;;
31724;SDS011;18306;40.960;14.836;2023-03-23T10:58:55;7.55;;;3.10;;
31724;SDS011;18306;40.960;14.836;2023-03-23T11:01:30;6.95;;;3.60;;
31724;SDS011;18306;40.960;14.836;2023-03-23T11:03:59;4.78;;;3.17;;
31724;SDS011;18306;40.960;14.836;2023-03-23T11:06:32;5.03;;;3.22;;
31724;SDS011;18306;40.960;14.836;2023-03-23T11:09:11;6.18;;;3.50;;
31724;SDS011;18306;40.960;14.836;2023-03-23T11:11:40;8.50;;;4.27;;
31724;SDS011;18306;40.960;14.836;2023-03-23T11:14:23;7.53;;;3.83;;
31724;SDS011;18306;40.960;14.836;2023-03-23T11:17:00;4.05;;;2.22;;
31724;SDS011;18306;40.960;14.836;2023-03-23T11:19:32;1.77;;;1.25;;
31724;SDS011;18306;40.960;14.836;2023-03-23T11:24:32;2.08;;;1.60;;
31724;SDS011;18306;40.960;14.836;2023-03-23T11:27:09;4.28;;;2.35;;
31724;SDS011;18306;40.960;14.836;2023-03-23T11:29:44;7.22;;;2.45;;
31724;SDS011;18306;40.960;14.836;2023-03-23T11:32:24;4.70;;;2.78;;
31724;SDS011;18306;40.960;14.836;2023-03-23T11:34:58;5.45;;;3.55;;
31724;SDS011;18306;40.960;14.836;2023-03-23T11:42:49;5.13;;;2.85;;
31724;SDS011;18306;40.960;14.836;2023-03-23T11:50:54;5.05;;;2.72;;
31724;SDS011;18306;40.960;14.836;2023-03-23T11:56:42;3.15;;;2.42;;
31724;SDS011;18306;40.960;14.836;2023-03-23T11:59:25;5.07;;;2.75;;
31724;SDS011;18306;40.960;14.836;2023-03-23T12:02:15;5.60;;;3.53;;
31724;SDS011;18306;40.960;14.836;2023-03-23T12:20:28;3.20;;;2.70;;
31724;SDS011;18306;40.960;14.836;2023-03-23T12:41:12;5.47;;;3.25;;
31724;SDS011;18306;40.960;14.836;2023-03-23T12:43:54;3.72;;;2.70;;
31724;SDS011;18306;40.960;14.836;2023-03-23T12:49:44;4.18;;;2.65;;
31724;SDS011;18306;40.960;14.836;2023-03-23T12:52:47;11.25;;;6.28;;
31724;SDS011;18306;40.960;14.836;2023-03-23T12:58:27;11.55;;;6.63;;
31724;SDS011;18306;40.960;14.836;2023-03-23T13:01:11;11.00;;;6.43;;
31724;SDS011;18306;40.960;14.836;2023-03-23T13:04:11;9.43;;;6.25;;
31724;SDS011;18306;40.960;14.836;2023-03-23T13:07:00;14.93;;;7.90;;
31724;SDS011;18306;40.960;14.836;2023-03-23T13:09:36;15.95;;;9.38;;
31724;SDS011;18306;40.960;14.836;2023-03-23T13:12:30;18.23;;;9.02;;
31724;SDS011;18306;40.960;14.836;2023-03-23T13:21:18;22.38;;;12.85;;
31724;SDS011;18306;40.960;14.836;2023-03-23T13:24:13;16.30;;;9.43;;
31724;SDS011;18306;40.960;14.836;2023-03-23T13:26:52;12.88;;;7.30;;
31724;SDS011;18306;40.960;14.836;2023-03-23T13:29:36;14.38;;;8.10;;
31724;SDS011;18306;40.960;14.836;2023-03-23T13:32:22;14.05;;;8.93;;
31724;SDS011;18306;40.960;14.836;2023-03-23T13:35:12;17.85;;;8.93;;
31724;SDS011;18306;40.960;14.836;2023-03-23T13:37:55;18.02;;;9.60;;
31724;SDS011;18306;40.960;14.836;2023-03-23T13:40:47;27.58;;;10.38;;
31724;SDS011;18306;40.960;14.836;2023-03-23T13:43:40;12.10;;;8.55;;
31724;SDS011;18306;40.960;14.836;2023-03-23T13:46:26;16.75;;;7.80;;
31724;SDS011;18306;40.960;14.836;2023-03-23T13:49:18;16.75;;;8.40;;
31724;SDS011;18306;40.960;14.836;2023-03-23T13:52:00;18.13;;;10.50;;
31724;SDS011;18306;40.960;14.836;2023-03-23T13:57:20;22.80;;;10.10;;
31724;SDS011;18306;40.960;14.836;2023-03-23T13:59:58;23.35;;;8.93;;
31724;SDS011;18306;40.960;14.836;2023-03-23T14:02:45;16.90;;;9.82;;
31724;SDS011;18306;40.960;14.836;2023-03-23T14:08:02;21.20;;;9.75;;
31724;SDS011;18306;40.960;14.836;2023-03-23T14:11:19;26.40;;;9.55;;
31724;SDS011;18306;40.960;14.836;2023-03-23T14:20:33;23.30;;;12.48;;
31724;SDS011;18306;40.960;14.836;2023-03-23T14:23:17;16.92;;;9.70;;
31724;SDS011;18306;40.960;14.836;2023-03-23T14:25:58;14.88;;;9.63;;
31724;SDS011;18306;40.960;14.836;2023-03-23T14:28:41;22.38;;;11.98;;
31724;SDS011;18306;40.960;14.836;2023-03-23T14:34:00;16.88;;;9.60;;
31724;SDS011;18306;40.960;14.836;2023-03-23T14:36:58;22.13;;;11.75;;
31724;SDS011;18306;40.960;14.836;2023-03-23T14:39:32;89.38;;;32.67;;
31724;SDS011;18306;40.960;14.836;2023-03-23T14:42:10;34.67;;;18.42;;
31724;SDS011;18306;40.960;14.836;2023-03-23T14:44:44;125.05;;;50.70;;
31724;SDS011;18306;40.960;14.836;2023-03-23T14:47:19;28.00;;;14.88;;
31724;SDS011;18306;40.960;14.836;2023-03-23T14:49:47;23.10;;;12.88;;
31724;SDS011;18306;40.960;14.836;2023-03-23T14:52:22;18.10;;;11.63;;
31724;SDS011;18306;40.960;14.836;2023-03-23T14:54:54;22.77;;;12.25;;
31724;SDS011;18306;40.960;14.836;2023-03-23T14:57:33;21.70;;;12.77;;
31724;SDS011;18306;40.960;14.836;2023-03-23T15:00:01;21.42;;;10.88;;
31724;SDS011;18306;40.960;14.836;2023-03-23T15:02:32;18.23;;;11.13;;
31724;SDS011;18306;40.960;14.836;2023-03-23T15:05:13;20.00;;;10.00;;
31724;SDS011;18306;40.960;14.836;2023-03-23T15:07:47;18.48;;;11.23;;
31724;SDS011;18306;40.960;14.836;2023-03-23T15:10:19;20.17;;;10.10;;
31724;SDS011;18306;40.960;14.836;2023-03-23T15:12:49;22.25;;;11.45;;
31724;SDS011;18306;40.960;14.836;2023-03-23T15:15:25;23.85;;;9.95;;
31724;SDS011;18306;40.960;14.836;2023-03-23T15:17:59;14.75;;;8.77;;
31724;SDS011;18306;40.960;14.836;2023-03-23T15:23:05;13.95;;;8.85;;
31724;SDS011;18306;40.960;14.836;2023-03-23T15:25:33;15.68;;;9.27;;
31724;SDS011;18306;40.960;14.836;2023-03-23T15:28:21;19.90;;;9.07;;
31724;SDS011;18306;40.960;14.836;2023-03-23T15:30:55;121.32;;;43.85;;
31724;SDS011;18306;40.960;14.836;2023-03-23T15:33:26;20.40;;;13.10;;
31724;SDS011;18306;40.960;14.836;2023-03-23T15:36:05;22.60;;;13.02;;
31724;SDS011;18306;40.960;14.836;2023-03-23T15:38:35;19.63;;;12.68;;
31724;SDS011;18306;40.960;14.836;2023-03-23T15:41:05;18.95;;;11.82;;
31724;SDS011;18306;40.960;14.836;2023-03-23T15:43:51;19.38;;;11.65;;
31724;SDS011;18306;40.960;14.836;2023-03-23T15:46:27;28.85;;;12.15;;
31724;SDS011;18306;40.960;14.836;2023-03-23T15:51:30;21.65;;;10.07;;
31724;SDS011;18306;40.960;14.836;2023-03-23T15:53:59;11.95;;;8.18;;
31724;SDS011;18306;40.960;14.836;2023-03-23T15:56:29;14.98;;;9.77;;
31724;SDS011;18306;40.960;14.836;2023-03-23T15:59:00;19.17;;;9.23;;
31724;SDS011;18306;40.960;14.836;2023-03-23T16:01:27;25.58;;;13.05;;
31724;SDS011;18306;40.960;14.836;2023-03-23T16:04:03;23.27;;;13.20;;
31724;SDS011;18306;40.960;14.836;2023-03-23T16:06:34;25.80;;;14.98;;
31724;SDS011;18306;40.960;14.836;2023-03-23T16:09:02;24.27;;;13.27;;
31724;SDS011;18306;40.960;14.836;2023-03-23T16:11:30;22.83;;;11.45;;
31724;SDS011;18306;40.960;14.836;2023-03-23T16:13:59;18.52;;;11.27;;
31724;SDS011;18306;40.960;14.836;2023-03-23T16:16:31;21.45;;;12.40;;
31724;SDS011;18306;40.960;14.836;2023-03-23T16:18:58;15.32;;;9.82;;
31724;SDS011;18306;40.960;14.836;2023-03-23T16:21:25;19.27;;;9.45;;
31724;SDS011;18306;40.960;14.836;2023-03-23T16:23:52;15.07;;;8.27;;
31724;SDS011;18306;40.960;14.836;2023-03-23T16:26:20;16.50;;;8.77;;
31724;SDS011;18306;40.960;14.836;2023-03-23T16:28:47;15.13;;;8.05;;
31724;SDS011;18306;40.960;14.836;2023-03-23T16:31:16;11.70;;;7.93;;
31724;SDS011;18306;40.960;14.836;2023-03-23T16:33:43;15.98;;;8.43;;
31724;SDS011;18306;40.960;14.836;2023-03-23T16:36:11;10.93;;;7.88;;
31724;SDS011;18306;40.960;14.836;2023-03-23T16:38:39;14.40;;;8.48;;
31724;SDS011;18306;40.960;14.836;2023-03-23T16:41:07;11.60;;;8.13;;
31724;SDS011;18306;40.960;14.836;2023-03-23T16:43:34;12.48;;;7.93;;
31724;SDS011;18306;40.960;14.836;2023-03-23T16:46:01;11.13;;;7.90;;
31724;SDS011;18306;40.960;14.836;2023-03-23T16:48:28;23.63;;;8.85;;
31724;SDS011;18306;40.960;14.836;2023-03-23T16:50:56;9.70;;;6.80;;
31724;SDS011;18306;40.960;14.836;2023-03-23T16:53:23;10.98;;;7.50;;
31724;SDS011;18306;40.960;14.836;2023-03-23T16:55:50;13.35;;;8.60;;
31724;SDS011;18306;40.960;14.836;2023-03-23T16:58:17;20.65;;;8.40;;
31724;SDS011;18306;40.960;14.836;2023-03-23T17:00:48;14.77;;;8.02;;
31724;SDS011;18306;40.960;14.836;2023-03-23T17:03:17;11.52;;;7.45;;
31724;SDS011;18306;40.960;14.836;2023-03-23T17:05:46;18.83;;;7.53;;